Time;durP1;ratioP1;P1;durP2;ratioP2;P2;SDS_P1;SDS_P2;PMS_P1;PMS_P2;Temp;Humidity;BMP_temperature;BMP_pressure;BME280_temperature;BME280_humidity;BME280_pressure;Samples;Min_cycle;Max_cycle;Signal;HPM_P1;HPM_P2
2022/10/11 00:02:18;;;;;;;12.90;7.90;;;15.80;99.90;;;;;;4974031;28;21059;-65
2022/10/11 00:04:45;;;;;;;16.97;8.60;;;15.80;99.90;;;;;;4973949;28;20458;-64
2022/10/11 00:07:12;;;;;;;14.83;8.00;;;15.70;99.90;;;;;;4974408;28;20455;-64
2022/10/11 00:09:39;;;;;;;13.33;7.63;;;15.70;99.90;;;;;;4974465;28;20850;-64
2022/10/11 00:12:06;;;;;;;14.80;8.73;;;15.70;99.90;;;;;;4974698;28;20478;-64
2022/10/11 00:14:33;;;;;;;11.43;9.00;;;15.70;99.90;;;;;;4977689;28;20823;-64
2022/10/11 00:17:00;;;;;;;10.20;9.30;;;15.60;99.90;;;;;;4977799;28;20819;-64
2022/10/11 00:19:27;;;;;;;10.20;9.27;;;15.60;99.90;;;;;;4977643;28;20511;-64
2022/10/11 00:21:54;;;;;;;11.07;9.40;;;15.50;99.90;;;;;;4977515;28;20506;-64
2022/10/11 00:24:21;;;;;;;10.33;7.97;;;15.50;99.90;;;;;;4977559;28;20510;-64
2022/10/11 00:26:48;;;;;;;18.20;8.87;;;15.50;99.90;;;;;;4977136;28;20938;-64
2022/10/11 00:29:15;;;;;;;10.67;8.83;;;15.40;99.90;;;;;;4977313;28;21009;-65
2022/10/11 00:31:41;;;;;;;12.67;9.10;;;15.40;99.90;;;;;;4977406;28;20482;-64
2022/10/11 00:34:10;;;;;;;13.40;9.37;;;15.40;99.90;;;;;;4977431;28;20459;-64
2022/10/11 00:36:38;;;;;;;10.77;9.73;;;15.30;99.90;;;;;;4977288;28;20458;-63
2022/10/11 00:39:04;;;;;;;12.33;9.17;;;15.20;99.90;;;;;;4977210;28;20478;-63
2022/10/11 00:41:31;;;;;;;10.00;8.90;;;15.20;99.90;;;;;;4976986;28;20478;-64
2022/10/11 00:44:16;;;;;;;13.20;9.87;;;15.20;99.90;;;;;;4977363;28;20458;-63
2022/10/11 00:46:46;;;;;;;9.70;8.70;;;15.10;99.90;;;;;;4977251;28;20439;-64
2022/10/11 00:49:19;;;;;;;11.47;9.20;;;15.00;99.90;;;;;;4977185;28;20439;-64
2022/10/11 00:51:52;;;;;;;9.73;8.63;;;15.00;99.90;;;;;;4976680;28;20978;-64
2022/10/11 00:54:22;;;;;;;9.30;7.93;;;14.90;99.90;;;;;;4977015;28;20434;-64
2022/10/11 00:56:53;;;;;;;10.60;9.17;;;14.90;99.90;;;;;;4976698;28;20458;-64
2022/10/11 00:59:25;;;;;;;12.30;9.90;;;14.90;99.90;;;;;;4976883;28;20467;-64
2022/10/11 01:01:53;;;;;;;12.87;9.37;;;14.80;99.90;;;;;;4976679;28;20491;-64
2022/10/11 01:04:19;;;;;;;13.27;10.10;;;14.80;99.90;;;;;;4976905;28;20458;-63
2022/10/11 01:06:49;;;;;;;15.47;10.23;;;14.80;99.90;;;;;;4976757;28;20455;-64
2022/10/11 01:09:17;;;;;;;15.17;11.73;;;14.70;99.90;;;;;;4976886;28;20533;-63
2022/10/11 01:11:44;;;;;;;13.93;11.57;;;14.70;99.90;;;;;;4976793;28;20525;-63
2022/10/11 01:14:31;;;;;;;15.33;12.17;;;14.70;99.90;;;;;;4976767;28;20565;-64
2022/10/11 01:17:03;;;;;;;20.00;14.00;;;14.70;99.90;;;;;;4976472;28;20443;-63
2022/10/11 01:20:04;;;;;;;17.03;15.23;;;14.70;99.90;;;;;;4976356;28;20466;-64
2022/10/11 01:22:57;;;;;;;21.30;16.03;;;14.70;99.90;;;;;;4961636;28;20964;-64
2022/10/11 01:25:31;;;;;;;17.97;15.10;;;14.70;99.90;;;;;;4975759;28;20443;-63
2022/10/11 01:28:26;;;;;;;21.90;17.07;;;14.80;99.90;;;;;;4976393;28;20442;-65
2022/10/11 01:31:01;;;;;;;23.23;18.80;;;14.80;99.90;;;;;;4971621;28;20885;-64
2022/10/11 01:33:34;;;;;;;22.63;19.90;;;14.80;99.90;;;;;;4976110;28;20910;-65
2022/10/11 01:36:06;;;;;;;26.37;20.40;;;14.80;99.90;;;;;;4976331;28;20509;-64
2022/10/11 01:38:38;;;;;;;23.40;20.00;;;14.80;99.90;;;;;;4976197;28;20869;-65
2022/10/11 01:41:10;;;;;;;26.70;20.57;;;14.80;99.90;;;;;;4976316;28;20573;-64
2022/10/11 01:43:38;;;;;;;30.23;20.33;;;14.80;99.90;;;;;;4976296;28;20461;-64
2022/10/11 01:46:08;;;;;;;30.63;22.47;;;14.90;99.90;;;;;;4976162;28;20490;-64
2022/10/11 01:48:47;;;;;;;31.00;22.20;;;14.90;99.90;;;;;;4975790;28;20902;-64
2022/10/11 01:51:15;;;;;;;25.77;22.30;;;14.90;99.90;;;;;;4976177;28;20565;-63
2022/10/11 01:54:13;;;;;;;27.20;23.10;;;14.90;99.90;;;;;;4975803;28;21004;-64
2022/10/11 01:56:52;;;;;;;31.20;24.73;;;14.90;99.90;;;;;;4975914;28;20836;-64
2022/10/11 01:59:29;;;;;;;30.20;24.03;;;14.90;99.90;;;;;;4975879;28;20463;-63
2022/10/11 02:02:13;;;;;;;25.87;23.13;;;14.90;99.90;;;;;;4975733;28;20494;-65
2022/10/11 02:04:44;;;;;;;28.17;23.97;;;15.00;99.90;;;;;;4976106;28;20443;-64
2022/10/11 02:07:18;;;;;;;32.13;24.77;;;15.00;99.90;;;;;;4978764;28;20466;-64
2022/10/11 02:09:52;;;;;;;26.40;22.37;;;15.00;99.90;;;;;;4983844;28;20835;-64
2022/10/11 02:12:26;;;;;;;28.77;23.27;;;15.00;99.90;;;;;;4982926;28;20501;-64
2022/10/11 02:14:56;;;;;;;34.43;24.63;;;15.00;99.90;;;;;;4982121;28;20972;-65
2022/10/11 02:17:30;;;;;;;26.60;22.33;;;15.10;99.90;;;;;;4976670;28;20505;-65
2022/10/11 02:20:00;;;;;;;25.50;22.63;;;15.10;99.90;;;;;;4976826;28;20501;-65
2022/10/11 02:22:31;;;;;;;25.33;22.63;;;15.10;99.90;;;;;;4984752;28;20471;-64
2022/10/11 02:25:01;;;;;;;26.90;22.10;;;15.10;99.90;;;;;;4983689;28;20443;-65
2022/10/11 02:27:32;;;;;;;31.93;24.10;;;15.10;99.90;;;;;;4975779;28;20438;-65
2022/10/11 02:30:04;;;;;;;26.70;23.80;;;15.00;99.90;;;;;;4975561;28;20439;-64
2022/10/11 02:32:32;;;;;;;33.57;25.23;;;15.10;99.90;;;;;;4975659;28;20537;-65
2022/10/11 02:35:01;;;;;;;38.93;25.73;;;15.10;99.90;;;;;;4977559;28;20458;-64
2022/10/11 02:37:32;;;;;;;36.10;25.20;;;15.10;99.90;;;;;;4976438;28;20992;-64
2022/10/11 02:40:06;;;;;;;36.50;26.67;;;15.10;99.90;;;;;;4976208;28;20518;-63
2022/10/11 02:42:36;;;;;;;36.03;26.90;;;15.10;99.90;;;;;;4976979;28;20474;-64
2022/10/11 02:45:10;;;;;;;34.87;26.10;;;15.10;99.90;;;;;;4977173;28;20439;-64
2022/10/11 02:47:41;;;;;;;36.23;26.60;;;15.10;99.90;;;;;;4976034;28;20919;-63
2022/10/11 02:50:08;;;;;;;33.63;25.03;;;15.10;99.90;;;;;;4975423;28;20903;-64
2022/10/11 02:52:35;;;;;;;34.43;25.77;;;15.10;99.90;;;;;;4975049;28;20478;-63
2022/10/11 02:55:01;;;;;;;37.07;27.07;;;15.10;99.90;;;;;;4975137;28;20490;-63
2022/10/11 02:57:28;;;;;;;41.47;27.27;;;15.10;99.90;;;;;;4975073;28;20505;-64
2022/10/11 02:59:55;;;;;;;35.90;27.30;;;15.10;99.90;;;;;;4974951;28;20533;-64
2022/10/11 03:02:22;;;;;;;34.50;27.03;;;15.10;99.90;;;;;;4974789;28;20909;-65
2022/10/11 03:04:50;;;;;;;43.47;27.33;;;15.10;99.90;;;;;;4974936;28;20454;-64
2022/10/11 03:07:16;;;;;;;39.33;27.40;;;15.00;99.90;;;;;;4974884;28;20477;-64
2022/10/11 03:09:44;;;;;;;39.70;26.07;;;15.10;99.90;;;;;;4974580;28;21008;-64
2022/10/11 03:12:10;;;;;;;38.70;28.37;;;15.10;99.90;;;;;;4974792;28;20486;-64
2022/10/11 03:14:37;;;;;;;35.03;27.00;;;15.10;99.90;;;;;;4974973;28;20517;-65
2022/10/11 03:17:04;;;;;;;46.97;28.80;;;15.10;99.90;;;;;;4974774;28;20458;-65
2022/10/11 03:19:31;;;;;;;35.03;26.50;;;15.10;99.90;;;;;;4974952;28;20478;-65
2022/10/11 03:21:59;;;;;;;42.43;28.30;;;15.10;99.90;;;;;;4974403;28;20478;-64
2022/10/11 03:24:26;;;;;;;47.23;27.33;;;15.10;99.90;;;;;;4974432;28;20950;-64
2022/10/11 03:26:52;;;;;;;49.80;26.33;;;15.20;99.90;;;;;;4974612;28;20462;-64
2022/10/11 03:29:19;;;;;;;39.50;26.53;;;15.20;99.90;;;;;;4974745;28;20454;-63
2022/10/11 03:31:46;;;;;;;42.90;25.50;;;15.20;99.90;;;;;;4974569;28;20475;-64
2022/10/11 03:34:13;;;;;;;43.27;25.20;;;15.20;99.90;;;;;;4974699;28;20867;-63
2022/10/11 03:36:39;;;;;;;35.50;25.07;;;15.20;99.90;;;;;;4974638;28;20455;-64
2022/10/11 03:39:07;;;;;;;38.70;27.40;;;15.20;99.90;;;;;;4974545;28;20474;-64
2022/10/11 03:41:34;;;;;;;33.47;26.23;;;15.30;99.90;;;;;;4974540;28;20837;-64
2022/10/11 03:44:01;;;;;;;35.80;26.53;;;15.30;99.90;;;;;;4974691;28;20485;-65
2022/10/11 03:46:27;;;;;;;36.17;25.97;;;15.30;99.90;;;;;;4974761;28;20503;-64
2022/10/11 03:48:54;;;;;;;33.83;24.73;;;15.30;99.90;;;;;;4978516;28;20796;-64
2022/10/11 03:51:20;;;;;;;41.67;24.93;;;15.30;99.90;;;;;;4978178;28;20482;-65
2022/10/11 03:53:47;;;;;;;42.67;26.53;;;15.30;99.90;;;;;;4978289;28;20525;-64
2022/10/11 03:56:15;;;;;;;36.40;27.70;;;15.30;99.90;;;;;;4978686;28;20481;-64
2022/10/11 03:58:42;;;;;;;35.70;27.77;;;15.20;99.90;;;;;;4977796;28;20961;-65
2022/10/11 04:01:09;;;;;;;33.30;25.77;;;15.20;99.90;;;;;;4977676;28;20837;-64
2022/10/11 04:03:36;;;;;;;49.37;25.47;;;15.20;99.90;;;;;;4978021;28;20931;-65
2022/10/11 04:06:02;;;;;;;49.37;29.03;;;15.20;99.90;;;;;;4978272;28;20443;-64
2022/10/11 04:08:29;;;;;;;38.33;26.03;;;15.30;99.90;;;;;;4977771;28;20938;-64
2022/10/11 04:10:55;;;;;;;33.90;26.07;;;15.30;99.90;;;;;;4978049;28;20530;-65
2022/10/11 04:13:23;;;;;;;33.97;25.97;;;15.20;99.90;;;;;;4978597;28;20462;-64
2022/10/11 04:15:50;;;;;;;34.57;24.90;;;15.30;99.90;;;;;;4978168;28;20454;-64
2022/10/11 04:18:17;;;;;;;36.03;25.03;;;15.30;99.90;;;;;;4977932;28;20465;-64
2022/10/11 04:20:44;;;;;;;34.10;24.40;;;15.30;99.90;;;;;;4979196;28;20478;-64
2022/10/11 04:23:10;;;;;;;35.70;25.90;;;15.30;99.90;;;;;;4978145;28;20458;-64
2022/10/11 04:25:38;;;;;;;33.23;26.40;;;15.30;99.90;;;;;;4977580;28;20521;-64
2022/10/11 04:28:06;;;;;;;34.70;25.23;;;15.30;99.90;;;;;;4977855;28;20609;-65
2022/10/11 04:30:34;;;;;;;35.30;24.63;;;15.30;99.90;;;;;;4977413;28;20447;-64
2022/10/11 04:33:01;;;;;;;34.53;25.13;;;15.30;99.90;;;;;;4977573;28;20505;-65
2022/10/11 04:35:28;;;;;;;26.87;23.43;;;15.30;99.90;;;;;;4977646;28;20521;-63
2022/10/11 04:37:55;;;;;;;37.63;27.90;;;15.30;99.90;;;;;;4977581;28;20455;-63
2022/10/11 04:40:22;;;;;;;39.40;26.03;;;15.30;99.90;;;;;;4977483;28;21060;-65
2022/10/11 04:42:49;;;;;;;30.60;25.37;;;15.30;99.90;;;;;;4977560;28;20891;-65
2022/10/11 04:45:16;;;;;;;39.60;26.10;;;15.20;99.90;;;;;;4977277;28;20937;-64
2022/10/11 04:47:44;;;;;;;30.47;23.03;;;15.20;99.90;;;;;;4977732;28;20455;-65
2022/10/11 04:50:11;;;;;;;29.53;23.00;;;15.20;99.90;;;;;;4977942;28;20458;-64
2022/10/11 04:52:37;;;;;;;35.00;26.20;;;15.20;99.90;;;;;;4977940;28;20881;-65
2022/10/11 04:55:05;;;;;;;31.57;23.47;;;15.20;99.90;;;;;;4977763;28;20454;-65
2022/10/11 04:57:32;;;;;;;35.37;23.13;;;15.20;99.90;;;;;;4977744;28;20458;-65
2022/10/11 04:59:58;;;;;;;29.13;24.83;;;15.20;99.90;;;;;;4977243;28;20474;-65
2022/10/11 05:02:25;;;;;;;32.83;23.40;;;15.20;99.90;;;;;;4977089;28;20490;-64
2022/10/11 05:04:53;;;;;;;37.93;22.53;;;15.20;99.90;;;;;;4976735;28;20950;-64
2022/10/11 05:07:20;;;;;;;33.43;23.30;;;15.20;99.90;;;;;;4976716;28;20545;-65
2022/10/11 05:09:47;;;;;;;46.07;25.67;;;15.10;99.90;;;;;;4976884;28;20454;-65
2022/10/11 05:12:13;;;;;;;28.60;23.63;;;15.10;99.90;;;;;;4976578;28;20546;-65
2022/10/11 05:14:40;;;;;;;30.00;24.10;;;15.10;99.90;;;;;;4976936;28;20533;-64
2022/10/11 05:17:06;;;;;;;32.67;23.73;;;15.10;99.90;;;;;;4977023;28;20462;-65
2022/10/11 05:19:33;;;;;;;34.60;23.40;;;15.10;99.90;;;;;;4976576;28;20482;-65
2022/10/11 05:22:01;;;;;;;29.77;23.20;;;15.20;99.90;;;;;;4978178;28;20482;-64
2022/10/11 05:24:28;;;;;;;35.40;22.30;;;15.20;99.90;;;;;;4986206;28;20478;-65
2022/10/11 05:26:54;;;;;;;28.13;22.50;;;15.10;99.90;;;;;;4984998;28;20457;-64
2022/10/11 05:29:21;;;;;;;30.10;23.73;;;15.10;99.90;;;;;;4977724;28;20457;-64
2022/10/11 05:31:48;;;;;;;32.77;23.80;;;15.10;99.90;;;;;;4976411;28;20475;-64
2022/10/11 05:34:14;;;;;;;37.53;22.87;;;15.00;99.90;;;;;;4976668;28;20459;-65
2022/10/11 05:36:41;;;;;;;28.83;23.37;;;15.00;99.90;;;;;;4976520;28;20513;-65
2022/10/11 05:39:09;;;;;;;40.10;24.47;;;15.00;99.90;;;;;;4976398;28;20443;-65
2022/10/11 05:41:35;;;;;;;33.70;24.80;;;15.00;99.90;;;;;;4976471;28;20529;-64
2022/10/11 05:44:02;;;;;;;31.60;22.37;;;15.00;99.90;;;;;;4976250;28;20533;-64
2022/10/11 05:46:29;;;;;;;36.93;26.53;;;15.00;99.90;;;;;;4976166;28;20459;-64
2022/10/11 05:48:55;;;;;;;32.70;23.50;;;14.90;99.90;;;;;;4976083;28;20821;-64
2022/10/11 05:51:22;;;;;;;28.40;23.83;;;14.90;99.90;;;;;;4976139;28;20541;-64
2022/10/11 05:53:49;;;;;;;29.80;24.10;;;14.90;99.90;;;;;;4976277;28;20451;-64
2022/10/11 05:56:20;;;;;;;34.77;25.30;;;14.80;99.90;;;;;;4977838;28;20586;-64
2022/10/11 05:58:47;;;;;;;34.57;25.37;;;14.80;99.90;;;;;;4977436;28;20470;-64
2022/10/11 06:01:18;;;;;;;33.57;23.77;;;14.90;99.90;;;;;;4975642;28;20482;-64
2022/10/11 06:03:45;;;;;;;36.40;26.13;;;14.90;99.90;;;;;;4975794;28;20494;-64
2022/10/11 06:06:12;;;;;;;31.20;25.63;;;14.80;99.90;;;;;;4975799;28;20796;-64
2022/10/11 06:08:38;;;;;;;31.53;24.23;;;14.90;99.90;;;;;;4975586;28;20965;-64
2022/10/11 06:11:16;;;;;;;30.07;23.20;;;14.90;99.90;;;;;;4975319;28;20470;-64
2022/10/11 06:13:44;;;;;;;33.70;23.53;;;14.90;99.90;;;;;;4975826;28;20517;-64
2022/10/11 06:16:12;;;;;;;29.83;24.10;;;14.80;99.90;;;;;;4975597;28;20513;-64
2022/10/11 06:18:39;;;;;;;35.83;24.03;;;14.80;99.90;;;;;;4975276;28;20834;-64
2022/10/11 06:21:06;;;;;;;35.40;23.00;;;14.70;99.90;;;;;;4975474;28;20627;-64
2022/10/11 06:23:32;;;;;;;27.83;23.60;;;14.70;99.90;;;;;;4975581;28;20458;-64
2022/10/11 06:26:01;;;;;;;37.30;23.20;;;14.80;99.90;;;;;;4975513;28;20462;-64
2022/10/11 06:28:29;;;;;;;30.93;22.33;;;14.70;99.90;;;;;;4975438;28;20454;-64
2022/10/11 06:30:57;;;;;;;33.47;21.77;;;14.80;99.90;;;;;;4975920;28;20546;-63
2022/10/11 06:33:24;;;;;;;34.23;22.67;;;14.80;99.90;;;;;;4975372;28;20828;-63
2022/10/11 06:35:57;;;;;;;25.40;21.33;;;14.80;99.90;;;;;;4975941;28;20942;-64
2022/10/11 06:38:24;;;;;;;29.80;22.90;;;14.80;99.90;;;;;;4975360;28;20851;-64
2022/10/11 06:40:50;;;;;;;36.03;22.07;;;14.80;99.90;;;;;;4975164;28;20474;-63
2022/10/11 06:43:17;;;;;;;27.43;22.20;;;14.80;99.90;;;;;;4975681;28;20486;-63
2022/10/11 06:45:44;;;;;;;27.97;22.13;;;14.80;99.90;;;;;;4975222;28;20470;-63
2022/10/11 06:48:12;;;;;;;27.43;20.43;;;14.80;99.90;;;;;;4975274;28;20620;-63
2022/10/11 06:50:38;;;;;;;20.90;17.83;;;14.90;99.90;;;;;;4975134;28;20447;-64
2022/10/11 06:53:06;;;;;;;18.63;14.50;;;15.00;99.90;;;;;;4975114;28;20506;-66
2022/10/11 06:55:33;;;;;;;21.87;17.20;;;15.20;99.90;;;;;;4975093;28;20482;-64
2022/10/11 06:58:00;;;;;;;24.00;16.30;;;15.30;99.90;;;;;;4975085;28;20454;-64
2022/10/11 07:00:27;;;;;;;25.70;18.70;;;15.40;99.90;;;;;;4974993;28;20482;-63
2022/10/11 07:02:53;;;;;;;19.80;17.70;;;15.40;99.90;;;;;;4974550;28;20542;-63
2022/10/11 07:05:21;;;;;;;19.30;17.20;;;15.40;99.90;;;;;;4975512;28;20454;-64
2022/10/11 07:07:48;;;;;;;26.77;16.27;;;15.40;99.90;;;;;;4974719;28;20864;-64
2022/10/11 07:10:15;;;;;;;20.93;17.30;;;15.50;99.90;;;;;;4974855;28;20934;-65
2022/10/11 07:12:45;;;;;;;29.73;17.53;;;15.50;99.90;;;;;;4974701;28;20994;-65
2022/10/11 07:15:12;;;;;;;21.30;18.20;;;15.50;99.90;;;;;;4974946;28;20443;-64
2022/10/11 07:17:39;;;;;;;23.47;17.47;;;15.50;99.90;;;;;;4975813;28;20481;-64
2022/10/11 07:20:06;;;;;;;23.27;16.83;;;15.60;99.90;;;;;;4975051;28;20822;-65
2022/10/11 07:22:34;;;;;;;22.03;17.57;;;15.60;99.90;;;;;;4976389;28;20474;-64
2022/10/11 07:25:01;;;;;;;25.90;17.03;;;15.60;99.90;;;;;;4979723;28;20458;-64
2022/10/11 07:27:28;;;;;;;22.47;17.33;;;15.60;99.90;;;;;;4978838;28;20462;-64
2022/10/11 07:29:55;;;;;;;20.73;16.50;;;15.60;99.90;;;;;;4980825;28;20454;-64
2022/10/11 07:32:22;;;;;;;21.57;18.47;;;15.60;99.90;;;;;;4984277;28;20554;-65
2022/10/11 07:34:48;;;;;;;21.40;16.80;;;15.60;99.90;;;;;;4982221;28;20458;-64
2022/10/11 07:37:15;;;;;;;31.77;19.20;;;15.70;99.90;;;;;;4978217;28;20950;-65
2022/10/11 07:39:43;;;;;;;20.73;15.93;;;15.70;99.90;;;;;;4978549;28;20466;-64
2022/10/11 07:42:10;;;;;;;22.73;17.03;;;15.70;99.90;;;;;;4978397;28;20490;-64
2022/10/11 07:44:36;;;;;;;21.50;16.70;;;15.80;99.90;;;;;;4978573;28;20513;-63
2022/10/11 07:47:03;;;;;;;22.67;17.33;;;15.80;99.90;;;;;;4978482;28;20458;-64
2022/10/11 07:49:30;;;;;;;20.83;18.40;;;15.90;99.90;;;;;;4978199;28;20945;-64
2022/10/11 07:51:56;;;;;;;18.80;16.43;;;15.80;99.90;;;;;;4978180;28;20474;-64
2022/10/11 07:54:23;;;;;;;20.17;17.00;;;15.80;99.90;;;;;;4978204;28;20483;-64
2022/10/11 07:56:51;;;;;;;24.23;17.27;;;15.80;99.90;;;;;;4978281;28;20454;-64
2022/10/11 07:59:18;;;;;;;21.53;19.13;;;15.90;99.90;;;;;;4978227;28;20454;-64
2022/10/11 08:01:45;;;;;;;26.50;20.83;;;15.80;99.90;;;;;;4977555;28;20490;-64
2022/10/11 08:04:12;;;;;;;25.50;20.37;;;15.70;99.90;;;;;;4978001;28;20459;-64
2022/10/11 08:06:38;;;;;;;22.43;19.63;;;15.80;99.90;;;;;;4978395;28;20465;-64
2022/10/11 08:09:05;;;;;;;29.70;18.90;;;15.90;99.90;;;;;;4977818;28;20509;-64
2022/10/11 08:11:33;;;;;;;24.63;19.47;;;15.90;99.90;;;;;;4977920;28;20474;-64
2022/10/11 08:14:04;;;;;;;23.33;19.07;;;15.90;99.90;;;;;;4977979;28;20828;-63
2022/10/11 08:16:30;;;;;;;25.00;18.90;;;15.90;99.90;;;;;;4977995;28;20578;-64
2022/10/11 08:18:57;;;;;;;26.20;20.07;;;15.90;99.90;;;;;;4977952;28;20509;-64
2022/10/11 08:21:25;;;;;;;25.83;19.40;;;15.90;99.90;;;;;;4981580;28;20489;-64
2022/10/11 08:23:52;;;;;;;27.10;19.60;;;15.80;99.90;;;;;;4987037;28;20482;-64
2022/10/11 08:26:19;;;;;;;21.70;19.43;;;15.80;99.90;;;;;;4982937;28;20521;-65
2022/10/11 08:28:45;;;;;;;26.27;20.40;;;15.90;99.90;;;;;;4977767;28;20938;-64
2022/10/11 08:31:15;;;;;;;26.57;19.27;;;15.90;99.90;;;;;;4977973;28;20533;-64
2022/10/11 08:33:42;;;;;;;26.87;20.83;;;15.90;99.90;;;;;;4977198;28;20454;-64
2022/10/11 08:36:09;;;;;;;25.53;18.70;;;15.90;99.90;;;;;;4977742;28;20454;-64
2022/10/11 08:38:37;;;;;;;27.70;19.67;;;15.90;99.90;;;;;;4977375;28;20505;-64
2022/10/11 08:41:23;;;;;;;22.33;19.37;;;15.80;99.90;;;;;;4977322;28;20490;-63
2022/10/11 08:43:55;;;;;;;22.30;19.90;;;15.80;99.90;;;;;;4977953;28;20786;-65
2022/10/11 08:46:29;;;;;;;22.53;19.90;;;15.70;99.90;;;;;;4976984;28;20942;-63
2022/10/11 08:48:57;;;;;;;22.63;20.20;;;15.60;99.90;;;;;;4977291;28;20471;-64
2022/10/11 08:51:28;;;;;;;28.60;21.63;;;15.50;99.90;;;;;;4977055;28;20471;-63
2022/10/11 08:54:00;;;;;;;25.53;20.83;;;15.60;99.90;;;;;;4977460;28;20473;-64
2022/10/11 08:56:28;;;;;;;27.67;19.70;;;15.50;99.90;;;;;;4977987;28;20479;-65
2022/10/11 08:58:58;;;;;;;24.53;19.60;;;15.60;99.90;;;;;;4977345;28;20517;-64
2022/10/11 09:01:28;;;;;;;25.97;19.73;;;15.70;99.90;;;;;;4976685;28;20487;-65
2022/10/11 09:03:56;;;;;;;23.77;19.70;;;15.70;99.90;;;;;;4977049;28;20490;-63
2022/10/11 09:06:36;;;;;;;24.03;19.40;;;15.70;99.90;;;;;;4976907;28;20466;-65
2022/10/11 09:09:21;;;;;;;25.57;19.93;;;15.70;99.90;;;;;;4976743;28;20966;-63
2022/10/11 09:12:02;;;;;;;21.97;19.57;;;15.70;99.90;;;;;;4982791;28;20478;-64
2022/10/11 09:14:50;;;;;;;23.53;18.87;;;15.80;99.90;;;;;;4978783;28;20435;-64
2022/10/11 09:17:33;;;;;;;28.17;18.40;;;15.90;99.90;;;;;;4976986;28;20509;-65
2022/10/11 09:20:32;;;;;;;21.83;16.53;;;15.90;99.90;;;;;;4976380;28;20969;-64
2022/10/11 09:23:05;;;;;;;26.23;19.47;;;16.00;99.90;;;;;;4977288;28;20471;-64
2022/10/11 09:25:34;;;;;;;24.40;18.90;;;16.00;99.90;;;;;;4976944;28;20446;-64
2022/10/11 09:28:10;;;;;;;23.43;16.23;;;16.00;99.90;;;;;;4977164;28;20451;-65
2022/10/11 09:30:40;;;;;;;20.93;17.23;;;16.00;99.90;;;;;;4976678;28;20533;-64
2022/10/11 09:33:17;;;;;;;28.37;17.30;;;16.10;99.90;;;;;;4976832;28;20458;-64
2022/10/11 09:35:47;;;;;;;23.13;19.70;;;16.00;99.90;;;;;;4976916;28;20443;-64
2022/10/11 09:38:24;;;;;;;24.90;16.80;;;15.90;99.90;;;;;;4976876;28;20541;-65
2022/10/11 09:41:00;;;;;;;20.70;16.30;;;16.00;99.90;;;;;;4976389;28;20462;-64
2022/10/11 09:43:26;;;;;;;20.83;16.20;;;16.00;99.90;;;;;;4976484;28;20490;-64
2022/10/11 09:45:53;;;;;;;19.37;16.00;;;16.20;99.90;;;;;;4976073;28;20466;-64
2022/10/11 09:48:24;;;;;;;20.43;16.67;;;16.30;99.90;;;;;;4976314;28;20794;-64
2022/10/11 09:50:52;;;;;;;16.53;14.73;;;16.20;99.90;;;;;;4976893;28;20823;-64
2022/10/11 09:53:20;;;;;;;20.03;15.63;;;16.30;99.90;;;;;;4976461;28;20506;-65
2022/10/11 09:55:52;;;;;;;17.00;13.33;;;16.50;99.90;;;;;;4976313;28;20465;-64
2022/10/11 09:58:30;;;;;;;18.30;14.37;;;16.70;99.90;;;;;;4976078;28;20854;-64
2022/10/11 10:00:59;;;;;;;15.50;13.63;;;16.90;99.90;;;;;;4975786;28;20545;-64
2022/10/11 10:03:33;;;;;;;15.70;13.90;;;17.10;99.90;;;;;;4976088;28;20493;-64
2022/10/11 10:06:06;;;;;;;18.47;14.23;;;17.20;99.90;;;;;;4975991;28;20461;-65
2022/10/11 10:08:33;;;;;;;16.20;13.37;;;17.30;99.90;;;;;;4975921;28;20529;-64
2022/10/11 10:11:02;;;;;;;16.77;13.57;;;17.50;99.90;;;;;;4975684;28;20525;-65
2022/10/11 10:13:39;;;;;;;22.70;14.40;;;17.60;99.90;;;;;;4975929;28;20512;-64
2022/10/11 10:16:10;;;;;;;15.30;12.73;;;17.70;99.90;;;;;;4975716;28;20438;-63
2022/10/11 10:18:47;;;;;;;20.50;13.30;;;17.70;99.90;;;;;;4975706;28;20970;-63
2022/10/11 10:21:15;;;;;;;14.83;13.43;;;17.70;99.90;;;;;;4975367;28;20486;-64
2022/10/11 10:23:43;;;;;;;15.43;11.80;;;17.70;99.90;;;;;;4975729;28;20455;-63
2022/10/11 10:26:13;;;;;;;14.40;12.93;;;17.80;99.90;;;;;;4975780;28;20510;-64
2022/10/11 10:28:57;;;;;;;14.47;12.90;;;17.90;99.90;;;;;;4975966;28;20451;-65
2022/10/11 10:31:26;;;;;;;14.70;13.23;;;17.90;99.90;;;;;;4975962;28;20521;-64
2022/10/11 10:33:55;;;;;;;16.93;15.10;;;17.60;99.90;;;;;;4975538;28;20459;-64
2022/10/11 10:36:27;;;;;;;13.87;12.13;;;17.40;99.90;;;;;;4975939;28;20513;-64
2022/10/11 10:38:59;;;;;;;14.40;12.90;;;17.40;99.90;;;;;;4975447;28;20443;-64
2022/10/11 10:41:26;;;;;;;16.33;12.20;;;17.50;99.90;;;;;;4975986;28;20537;-65
2022/10/11 10:43:56;;;;;;;18.73;13.50;;;17.60;99.90;;;;;;4975457;28;20525;-64
2022/10/11 10:46:36;;;;;;;14.13;12.70;;;17.80;99.90;;;;;;4975532;28;20806;-63
2022/10/11 10:49:12;;;;;;;14.67;13.20;;;17.90;99.90;;;;;;4975587;28;20434;-65
2022/10/11 10:51:46;;;;;;;14.63;12.60;;;17.90;99.90;;;;;;4976147;28;20485;-64
2022/10/11 10:54:24;;;;;;;15.43;12.10;;;18.10;99.90;;;;;;4978390;28;20502;-64
2022/10/11 10:56:55;;;;;;;14.00;11.63;;;18.30;99.90;;;;;;4977071;28;20439;-64
2022/10/11 10:59:55;;;;;;;13.53;11.70;;;18.50;99.90;;;;;;4975590;28;20494;-64
2022/10/11 11:02:28;;;;;;;12.83;11.10;;;18.80;99.90;;;;;;4975101;28;20985;-65
2022/10/11 11:05:06;;;;;;;20.47;11.40;;;19.00;99.90;;;;;;4975481;28;20441;-63
2022/10/11 11:07:43;;;;;;;14.10;11.93;;;19.10;99.90;;;;;;4975710;28;20446;-64
2022/10/11 11:10:15;;;;;;;22.43;12.30;;;19.20;99.90;;;;;;4976139;28;20442;-64
2022/10/11 11:12:48;;;;;;;15.00;12.90;;;19.20;99.90;;;;;;4976051;28;21032;-63
2022/10/11 11:15:19;;;;;;;14.93;13.43;;;19.20;99.90;;;;;;4975817;28;20489;-64
2022/10/11 11:18:05;;;;;;;13.00;11.70;;;19.30;99.90;;;;;;4977647;28;20439;-65
2022/10/11 11:20:51;;;;;;;13.10;11.77;;;19.30;99.90;;;;;;4976688;28;20806;-64
2022/10/11 11:23:26;;;;;;;14.63;12.40;;;19.20;99.90;;;;;;4975076;28;20453;-64
2022/10/11 11:26:00;;;;;;;12.57;10.77;;;19.20;99.90;;;;;;4974950;28;20489;-64
2022/10/11 11:28:51;;;;;;;11.97;10.70;;;19.20;99.90;;;;;;4976286;28;20439;-63
2022/10/11 11:31:33;;;;;;;16.20;12.37;;;19.20;99.90;;;;;;4975651;28;20498;-65
2022/10/11 11:34:07;;;;;;;15.27;11.13;;;19.00;99.90;;;;;;4975927;28;20526;-67
2022/10/11 11:36:41;;;;;;;12.50;9.70;;;18.90;99.90;;;;;;4975788;28;20433;-64
2022/10/11 11:39:16;;;;;;;11.20;9.30;;;18.80;99.90;;;;;;4976488;28;20439;-64
2022/10/11 11:41:47;;;;;;;10.63;9.30;;;18.80;99.90;;;;;;4974230;28;21009;-63
2022/10/11 11:44:21;;;;;;;11.03;10.03;;;18.80;99.90;;;;;;4974735;28;20439;-63
2022/10/11 11:46:53;;;;;;;11.53;9.70;;;18.80;99.90;;;;;;4974704;28;20439;-64
2022/10/11 11:49:24;;;;;;;13.40;10.63;;;18.70;99.90;;;;;;4974413;28;20767;-63
2022/10/11 11:51:54;;;;;;;12.80;9.47;;;18.60;99.90;;;;;;4974583;28;20475;-64
2022/10/11 11:54:31;;;;;;;13.57;11.40;;;18.50;99.90;;;;;;4974679;28;20534;-64
2022/10/11 11:57:02;;;;;;;13.47;12.10;;;18.40;99.90;;;;;;4974478;28;20439;-63
2022/10/11 11:59:36;;;;;;;16.30;10.93;;;18.30;99.90;;;;;;4975070;28;20489;-64
2022/10/11 12:02:24;;;;;;;14.00;11.50;;;18.20;99.90;;;;;;4974281;28;20489;-64
2022/10/11 12:04:51;;;;;;;14.17;11.70;;;18.20;99.90;;;;;;4974490;28;20446;-64
2022/10/11 12:07:23;;;;;;;15.40;10.47;;;18.10;99.90;;;;;;4975363;28;20505;-65
2022/10/11 12:09:53;;;;;;;13.37;12.00;;;18.10;99.90;;;;;;4978007;28;20505;-64
2022/10/11 12:12:30;;;;;;;12.33;11.13;;;18.10;99.90;;;;;;4978481;28;20474;-64
2022/10/11 12:15:15;;;;;;;14.70;11.17;;;18.10;99.90;;;;;;4978103;28;20470;-65
2022/10/11 12:18:06;;;;;;;12.67;10.60;;;18.00;99.90;;;;;;4977874;28;20830;-64
2022/10/11 12:20:36;;;;;;;14.67;12.70;;;17.90;99.90;;;;;;4977900;28;20435;-63
2022/10/11 12:23:25;;;;;;;13.77;10.90;;;17.90;99.90;;;;;;4978784;28;20467;-63
2022/10/11 12:26:30;;;;;;;14.30;11.00;;;17.70;99.90;;;;;;4977556;28;20462;-65
2022/10/11 12:29:40;;;;;;;12.93;11.37;;;17.60;99.90;;;;;;4977747;28;20501;-65
2022/10/11 12:32:52;;;;;;;16.03;11.70;;;17.70;99.90;;;;;;4977537;28;20525;-65
2022/10/11 12:35:52;;;;;;;13.53;10.20;;;17.70;99.90;;;;;;4979317;28;20441;-64
2022/10/11 12:38:22;;;;;;;13.33;11.93;;;17.70;99.90;;;;;;4977076;28;20471;-64
2022/10/11 12:40:50;;;;;;;14.00;11.50;;;17.70;99.90;;;;;;4978960;28;20451;-63
2022/10/11 12:43:55;;;;;;;13.83;12.53;;;17.70;99.90;;;;;;4978149;28;20505;-63
2022/10/11 12:46:57;;;;;;;23.10;12.70;;;17.70;99.90;;;;;;4976988;28;20458;-64
2022/10/11 12:49:40;;;;;;;13.73;12.33;;;17.60;99.90;;;;;;4977396;28;20949;-65